Newport, Canada
Current Conditions -  °F | °C
As of 12:00 PM on Thursday 23 Oct 2014 (Local Time) from CYGP Reporting Station
Scattered Clouds Scattered Clouds  
Wind Chill: 44°   Ceiling: Unl
Heat Index: 46°   Visibility: 15mi
Dew Point: 36°   Wind: 6mph
Humidity: 66%   Direction: 90°E
Pressure: 30.31"   Gusts: NA
Location:  48.27°N, 64.75°W
Report Text: CYGP 231600Z 09005KT 030V180 15SM FEW020 SCT220 08/02 A3031 RMK CU1CI2 SLP264
Loading
Personal Weather Stations






























Interactive Weather Map
Tropical Storm Tracking
New forecast layout! Learn more

10-Day Weather Forecast

Advertisements
Track Severe Weather on mobile